createdAt,value
2022-09-28T00:00:52.471Z,3.07
2022-09-28T00:03:19.435Z,2.80
2022-09-28T00:05:46.384Z,3.23
2022-09-28T00:08:13.714Z,4.67
2022-09-28T00:10:43.468Z,2.90
2022-09-28T00:13:10.499Z,4.33
2022-09-28T00:15:37.328Z,3.93
2022-09-28T00:18:04.529Z,5.10
2022-09-28T00:20:31.476Z,4.07
2022-09-28T00:22:58.747Z,4.10
2022-09-28T00:25:25.731Z,3.43
2022-09-28T00:27:52.709Z,3.53
2022-09-28T00:30:19.749Z,6.07
2022-09-28T00:32:46.688Z,3.10
2022-09-28T00:35:13.814Z,3.20
2022-09-28T00:37:40.917Z,3.30
2022-09-28T00:40:08.348Z,3.27
2022-09-28T00:42:35.329Z,2.97
2022-09-28T00:45:02.272Z,3.30
2022-09-28T00:47:43.999Z,4.47
2022-09-28T00:50:17.149Z,4.40
2022-09-28T00:52:59.240Z,4.33
2022-09-28T00:55:40.568Z,4.00
2022-09-28T00:58:12.048Z,3.00
2022-09-28T01:00:42.792Z,4.03
2022-09-28T01:03:10.320Z,3.33
2022-09-28T01:05:39.632Z,4.30
2022-09-28T01:08:08.186Z,3.23
2022-09-28T01:10:35.166Z,3.83
2022-09-28T01:13:02.311Z,3.10
2022-09-28T01:15:30.477Z,3.50
2022-09-28T01:18:21.201Z,3.67
2022-09-28T01:21:05.366Z,3.37
2022-09-28T01:23:41.443Z,4.47
2022-09-28T01:26:36.027Z,3.80
2022-09-28T01:29:16.426Z,4.70
2022-09-28T01:31:48.728Z,3.80
2022-09-28T01:34:24.146Z,3.90
2022-09-28T01:36:56.367Z,3.53
2022-09-28T01:39:33.741Z,3.37
2022-09-28T01:42:05.827Z,3.93
2022-09-28T01:44:39.971Z,4.03
2022-09-28T01:47:12.485Z,4.50
2022-09-28T01:49:47.961Z,3.93
2022-09-28T01:52:33.286Z,3.63
2022-09-28T01:55:12.204Z,3.73
2022-09-28T01:58:11.442Z,3.87
2022-09-28T02:00:47.253Z,3.87
2022-09-28T02:03:25.876Z,3.30
2022-09-28T02:06:05.838Z,3.90
2022-09-28T02:08:55.481Z,4.80
2022-09-28T02:11:29.981Z,3.87
2022-09-28T02:14:05.616Z,3.50
2022-09-28T02:16:45.639Z,4.37
2022-09-28T02:19:25.930Z,4.10
2022-09-28T02:22:16.186Z,3.70
2022-09-28T02:24:59.225Z,3.60
2022-09-28T02:27:39.560Z,5.93
2022-09-28T02:30:08.158Z,3.20
2022-09-28T02:32:40.427Z,3.70
2022-09-28T02:35:16.909Z,6.70
2022-09-28T02:37:46.072Z,3.77
2022-09-28T02:40:22.105Z,4.30
2022-09-28T02:43:04.714Z,3.97
2022-09-28T02:45:53.615Z,4.93
2022-09-28T02:48:55.866Z,4.57
2022-09-28T02:51:49.250Z,3.97
2022-09-28T02:54:35.313Z,3.53
2022-09-28T02:57:15.965Z,3.93
2022-09-28T03:00:02.168Z,4.13
2022-09-28T03:02:50.792Z,4.63
2022-09-28T03:06:07.572Z,3.67
2022-09-28T03:08:57.763Z,4.17
2022-09-28T03:11:34.109Z,5.10
2022-09-28T03:14:03.369Z,4.23
2022-09-28T03:16:44.481Z,4.33
2022-09-28T03:19:13.083Z,4.27
2022-09-28T03:21:40.430Z,5.37
2022-09-28T03:24:09.468Z,3.87
2022-09-28T03:26:36.345Z,4.10
2022-09-28T03:29:03.383Z,4.83
2022-09-28T03:31:30.918Z,3.97
2022-09-28T03:33:58.015Z,5.00
2022-09-28T03:36:25.097Z,5.17
2022-09-28T03:38:56.360Z,3.97
2022-09-28T03:41:25.168Z,4.13
2022-09-28T03:43:52.003Z,3.73
2022-09-28T03:46:19.073Z,3.97
2022-09-28T03:48:49.897Z,5.10
2022-09-28T03:51:16.850Z,6.10
2022-09-28T03:53:43.965Z,5.40
2022-09-28T03:56:14.602Z,6.67
2022-09-28T03:58:42.490Z,4.97
2022-09-28T04:01:16.999Z,3.53
2022-09-28T04:03:46.936Z,4.33
2022-09-28T04:06:14.868Z,4.93
2022-09-28T04:08:43.137Z,3.77
2022-09-28T04:11:10.356Z,4.40
2022-09-28T04:13:37.454Z,5.10
2022-09-28T04:16:06.967Z,3.93
2022-09-28T04:18:35.463Z,4.77
2022-09-28T04:21:09.507Z,4.60
2022-09-28T04:23:49.519Z,5.50
2022-09-28T04:26:22.945Z,4.73
2022-09-28T04:29:09.735Z,4.63
2022-09-28T04:32:03.128Z,4.27
2022-09-28T04:34:37.877Z,4.83
2022-09-28T04:37:06.644Z,4.93
2022-09-28T04:39:33.699Z,4.77
2022-09-28T04:42:01.231Z,6.47
2022-09-28T04:44:28.757Z,5.00
2022-09-28T04:47:05.143Z,4.50
2022-09-28T04:49:35.336Z,6.40
2022-09-28T04:52:15.817Z,4.87
2022-09-28T04:54:44.967Z,4.50
2022-09-28T04:57:12.300Z,4.73
2022-09-28T04:59:39.251Z,5.67
2022-09-28T05:02:06.306Z,4.63
2022-09-28T05:04:52.117Z,4.70
2022-09-28T05:07:38.612Z,4.00
2022-09-28T05:10:07.260Z,8.47
2022-09-28T05:12:34.827Z,4.47
2022-09-28T05:15:01.728Z,5.60
2022-09-28T05:17:28.784Z,3.83
2022-09-28T05:20:20.932Z,5.50
2022-09-28T05:22:48.123Z,5.43
2022-09-28T05:25:15.277Z,4.80
2022-09-28T05:28:02.510Z,4.10
2022-09-28T05:30:38.371Z,5.00
2022-09-28T05:33:26.968Z,6.37
2022-09-28T05:36:04.261Z,5.87
2022-09-28T05:38:31.667Z,5.13
2022-09-28T05:41:00.334Z,5.60
2022-09-28T05:43:29.184Z,5.30
2022-09-28T05:45:56.437Z,4.70
2022-09-28T05:48:23.429Z,4.47
2022-09-28T05:50:51.979Z,6.03
2022-09-28T05:53:18.885Z,4.37
2022-09-28T05:55:46.547Z,6.10
2022-09-28T05:58:13.910Z,4.43
2022-09-28T06:00:41.606Z,5.40
2022-09-28T06:03:12.430Z,5.93
2022-09-28T06:05:40.368Z,4.17
2022-09-28T06:08:10.485Z,5.30
2022-09-28T06:10:39.443Z,5.93
2022-09-28T06:13:07.229Z,5.93
2022-09-28T06:15:36.519Z,6.57
2022-09-28T06:18:06.418Z,5.90
2022-09-28T06:20:42.669Z,6.43
2022-09-28T06:23:17.306Z,5.80
2022-09-28T06:25:44.452Z,5.27
2022-09-28T06:28:35.046Z,5.37
2022-09-28T06:31:22.677Z,4.40
2022-09-28T06:34:10.971Z,4.50
2022-09-28T06:36:58.334Z,5.53
2022-09-28T06:39:45.315Z,5.53
2022-09-28T06:42:32.338Z,6.33
2022-09-28T06:45:46.427Z,4.43
2022-09-28T06:48:44.794Z,4.73
2022-09-28T06:51:35.456Z,5.30
2022-09-28T06:54:32.317Z,5.33
2022-09-28T06:57:42.275Z,5.10
2022-09-28T07:00:29.861Z,4.90
2022-09-28T07:03:17.180Z,3.60
2022-09-28T07:06:24.516Z,4.57
2022-09-28T07:09:31.683Z,4.90
2022-09-28T07:12:18.336Z,4.10
2022-09-28T07:14:57.461Z,4.47
2022-09-28T07:17:27.145Z,4.10
2022-09-28T07:20:00.689Z,4.50
2022-09-28T07:22:42.165Z,4.27
2022-09-28T07:25:33.496Z,5.20
2022-09-28T07:28:28.537Z,4.43
2022-09-28T07:31:33.829Z,4.40
2022-09-28T07:34:39.462Z,4.57
2022-09-28T07:37:32.557Z,5.13
2022-09-28T07:40:18.402Z,4.93
2022-09-28T07:43:05.384Z,4.97
2022-09-28T07:45:52.603Z,5.17
2022-09-28T07:48:40.497Z,5.87
2022-09-28T07:51:47.971Z,4.17
2022-09-28T07:54:43.167Z,4.90
2022-09-28T07:57:36.385Z,4.57
2022-09-28T08:00:34.275Z,4.47
2022-09-28T08:03:02.719Z,3.87
2022-09-28T08:05:32.168Z,3.90
2022-09-28T08:08:19.304Z,4.73
2022-09-28T08:11:06.897Z,4.27
2022-09-28T08:14:23.071Z,3.27
2022-09-28T08:17:29.261Z,3.33
2022-09-28T08:20:17.716Z,4.67
2022-09-28T08:22:44.808Z,3.23
2022-09-28T08:25:12.225Z,4.13
2022-09-28T08:27:39.341Z,4.90
2022-09-28T08:30:27.182Z,4.27
2022-09-28T08:33:41.479Z,3.07
2022-09-28T08:36:54.285Z,3.80
2022-09-28T08:40:13.436Z,3.17
2022-09-28T08:43:41.135Z,3.63
2022-09-28T08:46:46.344Z,2.93
2022-09-28T08:50:06.884Z,3.60
2022-09-28T08:53:17.481Z,3.27
2022-09-28T08:56:40.967Z,3.77
2022-09-28T08:59:19.945Z,3.40
2022-09-28T09:01:58.519Z,4.70
2022-09-28T09:04:27.458Z,2.77
2022-09-28T09:07:39.997Z,4.27
2022-09-28T09:10:37.472Z,3.83
2022-09-28T09:13:38.745Z,3.20
2022-09-28T09:16:32.280Z,2.43
2022-09-28T09:19:28.837Z,3.17
2022-09-28T09:22:27.441Z,2.67
2022-09-28T09:25:08.335Z,3.60
2022-09-28T09:27:54.100Z,1.90
2022-09-28T09:30:30.048Z,2.40
2022-09-28T09:33:20.552Z,2.80
2022-09-28T09:36:20.492Z,2.00
2022-09-28T09:39:19.129Z,2.27
2022-09-28T09:42:37.096Z,2.60
2022-09-28T09:45:57.412Z,2.63
2022-09-28T09:49:41.991Z,2.10
2022-09-28T09:52:35.635Z,2.37
2022-09-28T09:55:36.797Z,2.30
2022-09-28T09:59:04.105Z,2.30
2022-09-28T10:01:59.719Z,4.07
2022-09-28T10:05:06.193Z,2.77
2022-09-28T10:08:18.399Z,2.40
2022-09-28T10:11:13.399Z,1.70
2022-09-28T10:14:06.424Z,1.73
2022-09-28T10:17:05.701Z,1.80
2022-09-28T10:20:11.457Z,3.73
2022-09-28T10:23:19.065Z,1.67
2022-09-28T10:26:07.461Z,2.27
2022-09-28T10:29:09.360Z,2.03
2022-09-28T10:32:00.398Z,1.50
2022-09-28T10:34:54.031Z,1.70
2022-09-28T10:37:43.972Z,2.40
2022-09-28T10:40:53.609Z,1.93
2022-09-28T10:43:58.166Z,1.50
2022-09-28T10:46:45.356Z,1.43
2022-09-28T10:49:37.435Z,1.50
2022-09-28T10:52:25.264Z,1.43
2022-09-28T10:55:15.387Z,2.50
2022-09-28T10:58:02.375Z,2.40
2022-09-28T11:01:03.409Z,1.50
2022-09-28T11:03:52.072Z,1.97
2022-09-28T11:06:52.143Z,2.80
2022-09-28T11:09:53.524Z,2.03
2022-09-28T11:12:44.431Z,3.07
2022-09-28T11:15:47.229Z,3.50
2022-09-28T11:18:50.581Z,1.70
2022-09-28T11:21:42.919Z,7.10
2022-09-28T11:24:42.282Z,1.90
2022-09-28T11:27:41.431Z,1.77
2022-09-28T11:30:44.331Z,1.60
2022-09-28T11:33:45.976Z,1.80
2022-09-28T11:37:32.505Z,1.60
2022-09-28T11:40:28.439Z,1.70
2022-09-28T11:43:27.907Z,2.33
2022-09-28T11:46:21.527Z,2.03
2022-09-28T11:49:18.106Z,2.23
2022-09-28T11:52:08.736Z,2.77
2022-09-28T11:55:10.686Z,1.60
2022-09-28T11:57:42.228Z,2.40
2022-09-28T12:00:32.631Z,2.97
2022-09-28T12:03:35.470Z,1.73
2022-09-28T12:06:26.645Z,2.40
2022-09-28T12:09:20.118Z,2.07
2022-09-28T12:12:22.635Z,1.97
2022-09-28T12:15:15.496Z,2.30
2022-09-28T12:18:17.404Z,1.90
2022-09-28T12:21:08.944Z,3.40
2022-09-28T12:23:59.383Z,2.77
2022-09-28T12:26:55.103Z,3.13
2022-09-28T12:30:13.813Z,2.47
2022-09-28T12:33:15.523Z,2.37
2022-09-28T12:36:17.344Z,2.07
2022-09-28T12:39:24.004Z,2.43
2022-09-28T12:42:59.028Z,2.53
2022-09-28T12:46:18.226Z,2.90
2022-09-28T12:50:01.919Z,3.03
2022-09-28T12:52:07.600Z,3.07
2022-09-28T12:55:15.866Z,2.57
2022-09-28T12:58:06.892Z,3.57
2022-09-28T13:01:25.205Z,3.53
2022-09-28T13:04:18.155Z,2.40
2022-09-28T13:07:08.948Z,3.07
2022-09-28T13:10:27.602Z,3.10
2022-09-28T13:13:16.336Z,2.50
2022-09-28T13:16:12.373Z,3.87
2022-09-28T13:19:30.941Z,3.67
2022-09-28T13:22:21.320Z,3.60
2022-09-28T13:25:09.784Z,2.93
2022-09-28T13:28:00.772Z,3.50
2022-09-28T13:30:47.790Z,2.80
2022-09-28T13:33:56.021Z,3.10
2022-09-28T13:36:48.538Z,3.50
2022-09-28T13:39:55.352Z,2.77
2022-09-28T13:42:36.450Z,2.60
2022-09-28T13:45:46.701Z,3.37
2022-09-28T13:48:35.809Z,3.20
2022-09-28T13:52:04.896Z,2.50
2022-09-28T13:54:45.434Z,2.43
2022-09-28T13:58:06.538Z,2.70
2022-09-28T14:01:01.385Z,2.73
2022-09-28T14:04:05.059Z,3.77
2022-09-28T14:06:55.473Z,2.67
2022-09-28T14:09:44.808Z,2.33
2022-09-28T14:12:46.907Z,4.00
2022-09-28T14:16:01.829Z,2.47
2022-09-28T14:18:53.021Z,2.53
2022-09-28T14:22:02.167Z,2.03
2022-09-28T14:24:57.951Z,2.10
2022-09-28T14:27:44.968Z,1.97
2022-09-28T14:30:31.847Z,2.00
2022-09-28T14:33:20.211Z,2.73
2022-09-28T14:36:08.435Z,2.60
2022-09-28T14:39:05.763Z,2.30
2022-09-28T14:41:56.461Z,2.00
2022-09-28T14:44:43.452Z,3.20
2022-09-28T14:48:03.441Z,1.93
2022-09-28T14:50:50.675Z,2.17
2022-09-28T14:53:43.513Z,2.40
2022-09-28T14:56:34.358Z,2.30
2022-09-28T14:59:22.185Z,3.53
2022-09-28T15:02:18.009Z,2.03
2022-09-28T15:05:17.105Z,2.70
2022-09-28T15:08:04.292Z,2.57
2022-09-28T15:10:54.200Z,3.63
2022-09-28T15:13:48.911Z,2.87
2022-09-28T15:16:37.404Z,2.33
2022-09-28T15:19:36.385Z,2.23
2022-09-28T15:22:23.346Z,2.33
2022-09-28T15:25:21.623Z,2.17
2022-09-28T15:28:17.400Z,2.10
2022-09-28T15:31:04.593Z,2.40
2022-09-28T15:33:52.897Z,2.40
2022-09-28T15:36:49.852Z,2.27
2022-09-28T15:39:45.840Z,2.90
2022-09-28T15:42:32.846Z,2.10
2022-09-28T15:45:21.648Z,1.90
2022-09-28T15:48:09.545Z,2.20
2022-09-28T15:50:56.632Z,2.37
2022-09-28T15:53:43.660Z,1.97
2022-09-28T15:56:31.024Z,1.93
2022-09-28T15:59:33.187Z,1.87
2022-09-28T16:02:44.860Z,1.90
2022-09-28T16:05:50.817Z,2.20
2022-09-28T16:08:46.059Z,2.00
2022-09-28T16:11:39.304Z,2.07
2022-09-28T16:14:35.484Z,2.10
2022-09-28T16:17:23.198Z,3.17
2022-09-28T16:20:10.209Z,3.53
2022-09-28T16:22:57.419Z,2.83
2022-09-28T16:25:46.720Z,2.47
2022-09-28T16:29:05.177Z,3.80
2022-09-28T16:31:52.296Z,3.30
2022-09-28T16:34:43.941Z,2.73
2022-09-28T16:37:50.412Z,2.87
2022-09-28T16:40:37.473Z,3.33
2022-09-28T16:43:27.600Z,3.20
2022-09-28T16:46:35.488Z,3.47
2022-09-28T16:49:23.288Z,3.17
2022-09-28T16:52:10.297Z,4.20
2022-09-28T16:54:55.827Z,3.37
2022-09-28T16:57:42.825Z,4.70
2022-09-28T17:00:35.072Z,4.00
2022-09-28T17:03:22.299Z,4.27
2022-09-28T17:06:10.704Z,3.73
2022-09-28T17:08:57.627Z,3.90
2022-09-28T17:11:44.893Z,3.90
2022-09-28T17:14:32.019Z,3.57
2022-09-28T17:17:19.172Z,3.67
2022-09-28T17:20:06.103Z,3.77
2022-09-28T17:22:53.341Z,3.70
2022-09-28T17:25:43.142Z,3.90
2022-09-28T17:28:56.676Z,4.37
2022-09-28T17:31:43.606Z,4.37
2022-09-28T17:34:20.545Z,3.27
2022-09-28T17:36:47.867Z,3.43
2022-09-28T17:39:17.648Z,3.30
2022-09-28T17:41:45.302Z,3.90
2022-09-28T17:44:32.128Z,3.80
2022-09-28T17:47:19.030Z,4.20
2022-09-28T17:50:06.008Z,4.47
2022-09-28T17:52:52.924Z,4.77
2022-09-28T17:55:47.858Z,3.67
2022-09-28T17:58:42.612Z,3.70
2022-09-28T18:01:30.131Z,5.13
2022-09-28T18:04:39.706Z,3.30
2022-09-28T18:07:24.239Z,4.10
2022-09-28T18:10:13.888Z,4.00
2022-09-28T18:13:01.168Z,4.83
2022-09-28T18:15:48.079Z,4.50
2022-09-28T18:18:35.119Z,3.70
2022-09-28T18:21:22.037Z,5.80
2022-09-28T18:24:09.170Z,4.37
2022-09-28T18:26:57.301Z,4.53
2022-09-28T18:29:44.357Z,3.83
2022-09-28T18:32:31.276Z,2.97
2022-09-28T18:35:22.625Z,5.20
2022-09-28T18:38:10.049Z,3.90
2022-09-28T18:40:57.197Z,3.63
2022-09-28T18:43:44.057Z,3.40
2022-09-28T18:46:31.866Z,4.80
2022-09-28T18:49:18.882Z,3.77
2022-09-28T18:52:05.965Z,4.37
2022-09-28T18:54:52.803Z,4.07
2022-09-28T18:57:39.840Z,4.37
2022-09-28T19:00:29.464Z,5.07
2022-09-28T19:03:16.492Z,4.23
2022-09-28T19:06:04.347Z,3.40
2022-09-28T19:08:51.337Z,4.37
2022-09-28T19:11:38.599Z,4.80
2022-09-28T19:14:25.651Z,4.50
2022-09-28T19:17:12.688Z,3.63
2022-09-28T19:19:59.769Z,4.57
2022-09-28T19:22:46.701Z,3.87
2022-09-28T19:25:33.913Z,4.13
2022-09-28T19:28:21.020Z,3.37
2022-09-28T19:31:16.166Z,4.17
2022-09-28T19:34:03.304Z,4.33
2022-09-28T19:36:50.548Z,4.10
2022-09-28T19:39:37.557Z,4.40
2022-09-28T19:42:24.514Z,3.40
2022-09-28T19:45:11.332Z,3.73
2022-09-28T19:47:59.494Z,3.53
2022-09-28T19:50:46.412Z,3.70
2022-09-28T19:53:33.323Z,3.93
2022-09-28T19:56:20.516Z,4.80
2022-09-28T19:59:07.512Z,4.87
2022-09-28T20:01:54.530Z,4.60
2022-09-28T20:04:41.879Z,3.83
2022-09-28T20:07:28.996Z,6.23
2022-09-28T20:10:16.204Z,3.50
2022-09-28T20:13:03.057Z,5.63
2022-09-28T20:15:50.244Z,4.20
2022-09-28T21:01:45.305Z,4.17
2022-09-28T21:04:12.446Z,3.80
2022-09-28T21:06:41.501Z,2.87
2022-09-28T21:09:09.901Z,3.50
2022-09-28T21:11:37.663Z,3.97
2022-09-28T21:14:06.448Z,2.80
2022-09-28T21:16:55.337Z,3.83
2022-09-28T21:19:39.893Z,2.60
2022-09-28T21:22:26.808Z,3.67
2022-09-28T21:25:13.663Z,4.07
2022-09-28T21:28:00.561Z,2.50
2022-09-28T21:30:47.556Z,3.63
2022-09-28T21:33:34.492Z,4.17
2022-09-28T21:36:22.532Z,2.40
2022-09-28T21:39:10.472Z,3.53
2022-09-28T21:41:57.615Z,2.83
2022-09-28T21:44:44.557Z,2.73
2022-09-28T21:47:31.407Z,2.77
2022-09-28T21:50:18.276Z,2.60
2022-09-28T21:53:05.108Z,2.73
2022-09-28T21:55:52.239Z,5.10
2022-09-28T21:58:44.783Z,2.17
2022-09-28T22:01:36.196Z,2.50
2022-09-28T22:04:23.174Z,2.47
2022-09-28T22:07:10.017Z,2.63
2022-09-28T22:09:57.021Z,2.23
2022-09-28T22:12:43.975Z,2.37
2022-09-28T22:15:30.885Z,2.90
2022-09-28T22:18:18.143Z,2.37
2022-09-28T22:21:04.999Z,3.07
2022-09-28T22:23:52.643Z,2.07
2022-09-28T22:26:42.045Z,1.97
2022-09-28T22:29:29.901Z,2.10
2022-09-28T22:32:18.244Z,2.07
2022-09-28T22:35:05.156Z,1.80
2022-09-28T22:37:52.075Z,1.63
2022-09-28T22:40:39.085Z,2.00
2022-09-28T22:43:26.259Z,2.27
2022-09-28T22:46:28.595Z,2.37
2022-09-28T22:49:17.744Z,1.90
2022-09-28T22:52:04.660Z,1.80
2022-09-28T22:54:51.514Z,1.57
2022-09-28T22:57:38.488Z,1.90
2022-09-28T23:00:25.889Z,1.80
2022-09-28T23:03:13.515Z,1.60
2022-09-28T23:06:00.681Z,1.97
2022-09-28T23:08:47.735Z,1.80
2022-09-28T23:11:35.791Z,1.83
2022-09-28T23:14:22.941Z,1.60
2022-09-28T23:17:09.767Z,1.73
2022-09-28T23:19:56.866Z,1.30
2022-09-28T23:22:43.752Z,2.60
2022-09-28T23:25:30.727Z,1.80
2022-09-28T23:28:17.562Z,1.77
2022-09-28T23:31:04.609Z,1.90
2022-09-28T23:33:51.455Z,2.87
2022-09-28T23:36:38.816Z,2.57
2022-09-28T23:39:25.596Z,1.77
2022-09-28T23:42:12.552Z,1.57
2022-09-28T23:44:59.498Z,2.43
2022-09-28T23:47:46.580Z,1.57
2022-09-28T23:50:33.596Z,2.73
2022-09-28T23:53:20.530Z,3.17
2022-09-28T23:56:07.373Z,1.77
2022-09-28T23:58:54.703Z,1.57
